sensor_id;sensor_type;location;lat;lon;timestamp;P1;durP1;ratioP1;P2;durP2;ratioP2
60975;SDS011;46849;48.154;17.042;2022-10-14T00:00:31;31.95;;;18.45;;
60975;SDS011;46849;48.154;17.042;2022-10-14T00:03:27;30.00;;;18.63;;
60975;SDS011;46849;48.154;17.042;2022-10-14T00:06:13;31.67;;;17.58;;
60975;SDS011;46849;48.154;17.042;2022-10-14T00:09:05;31.60;;;18.38;;
60975;SDS011;46849;48.154;17.042;2022-10-14T00:11:52;30.58;;;18.05;;
60975;SDS011;46849;48.154;17.042;2022-10-14T00:14:37;30.20;;;16.98;;
60975;SDS011;46849;48.154;17.042;2022-10-14T00:17:22;31.13;;;18.60;;
60975;SDS011;46849;48.154;17.042;2022-10-14T00:20:08;35.63;;;19.05;;
60975;SDS011;46849;48.154;17.042;2022-10-14T00:22:53;29.00;;;17.08;;
60975;SDS011;46849;48.154;17.042;2022-10-14T00:25:39;32.38;;;17.58;;
60975;SDS011;46849;48.154;17.042;2022-10-14T00:28:23;39.13;;;18.98;;
60975;SDS011;46849;48.154;17.042;2022-10-14T00:31:08;33.83;;;18.88;;
60975;SDS011;46849;48.154;17.042;2022-10-14T00:33:53;35.72;;;18.63;;
60975;SDS011;46849;48.154;17.042;2022-10-14T00:36:39;32.70;;;17.92;;
60975;SDS011;46849;48.154;17.042;2022-10-14T00:39:28;33.55;;;18.48;;
60975;SDS011;46849;48.154;17.042;2022-10-14T00:42:15;33.33;;;18.30;;
60975;SDS011;46849;48.154;17.042;2022-10-14T00:45:01;33.00;;;18.55;;
60975;SDS011;46849;48.154;17.042;2022-10-14T00:47:55;32.63;;;18.42;;
60975;SDS011;46849;48.154;17.042;2022-10-14T00:50:41;33.55;;;18.20;;
60975;SDS011;46849;48.154;17.042;2022-10-14T00:53:28;32.63;;;17.73;;
60975;SDS011;46849;48.154;17.042;2022-10-14T00:56:15;27.83;;;18.10;;
60975;SDS011;46849;48.154;17.042;2022-10-14T00:59:04;30.35;;;17.88;;
60975;SDS011;46849;48.154;17.042;2022-10-14T01:01:50;32.78;;;19.15;;
60975;SDS011;46849;48.154;17.042;2022-10-14T01:04:36;33.55;;;19.15;;
60975;SDS011;46849;48.154;17.042;2022-10-14T01:16:20;34.97;;;19.23;;
60975;SDS011;46849;48.154;17.042;2022-10-14T01:22:36;31.00;;;18.83;;
60975;SDS011;46849;48.154;17.042;2022-10-14T01:28:19;31.70;;;18.20;;
60975;SDS011;46849;48.154;17.042;2022-10-14T01:31:14;36.10;;;21.02;;
60975;SDS011;46849;48.154;17.042;2022-10-14T01:34:04;32.33;;;18.52;;
60975;SDS011;46849;48.154;17.042;2022-10-14T01:36:57;33.65;;;18.80;;
60975;SDS011;46849;48.154;17.042;2022-10-14T01:39:50;30.08;;;19.30;;
60975;SDS011;46849;48.154;17.042;2022-10-14T01:42:38;33.60;;;20.00;;
60975;SDS011;46849;48.154;17.042;2022-10-14T01:45:26;35.38;;;19.60;;
60975;SDS011;46849;48.154;17.042;2022-10-14T01:48:16;35.10;;;19.52;;
60975;SDS011;46849;48.154;17.042;2022-10-14T01:51:11;32.53;;;19.23;;
60975;SDS011;46849;48.154;17.042;2022-10-14T01:54:04;33.20;;;19.20;;
60975;SDS011;46849;48.154;17.042;2022-10-14T01:56:53;32.08;;;18.85;;
60975;SDS011;46849;48.154;17.042;2022-10-14T01:59:42;33.63;;;19.05;;
60975;SDS011;46849;48.154;17.042;2022-10-14T02:02:29;32.70;;;18.08;;
60975;SDS011;46849;48.154;17.042;2022-10-14T02:11:40;32.25;;;18.65;;
60975;SDS011;46849;48.154;17.042;2022-10-14T02:14:38;31.80;;;17.88;;
60975;SDS011;46849;48.154;17.042;2022-10-14T02:17:52;33.38;;;18.65;;
60975;SDS011;46849;48.154;17.042;2022-10-14T02:20:41;33.25;;;18.45;;
60975;SDS011;46849;48.154;17.042;2022-10-14T02:23:42;32.80;;;18.60;;
60975;SDS011;46849;48.154;17.042;2022-10-14T02:26:34;28.92;;;17.92;;
60975;SDS011;46849;48.154;17.042;2022-10-14T02:29:21;34.70;;;18.02;;
60975;SDS011;46849;48.154;17.042;2022-10-14T02:32:12;33.20;;;18.90;;
60975;SDS011;46849;48.154;17.042;2022-10-14T02:34:58;30.08;;;17.98;;
60975;SDS011;46849;48.154;17.042;2022-10-14T02:37:45;29.77;;;18.20;;
60975;SDS011;46849;48.154;17.042;2022-10-14T02:40:38;30.88;;;17.98;;
60975;SDS011;46849;48.154;17.042;2022-10-14T02:43:27;37.10;;;19.15;;
60975;SDS011;46849;48.154;17.042;2022-10-14T02:46:11;33.83;;;20.15;;
60975;SDS011;46849;48.154;17.042;2022-10-14T02:48:57;31.95;;;19.00;;
60975;SDS011;46849;48.154;17.042;2022-10-14T02:51:42;29.55;;;17.05;;
60975;SDS011;46849;48.154;17.042;2022-10-14T02:54:28;34.60;;;18.58;;
60975;SDS011;46849;48.154;17.042;2022-10-14T02:57:15;30.08;;;18.40;;
60975;SDS011;46849;48.154;17.042;2022-10-14T02:59:59;30.17;;;18.15;;
60975;SDS011;46849;48.154;17.042;2022-10-14T03:02:45;32.42;;;17.45;;
60975;SDS011;46849;48.154;17.042;2022-10-14T03:05:33;33.28;;;18.08;;
60975;SDS011;46849;48.154;17.042;2022-10-14T03:08:18;34.63;;;18.27;;
60975;SDS011;46849;48.154;17.042;2022-10-14T03:11:04;32.50;;;17.38;;
60975;SDS011;46849;48.154;17.042;2022-10-14T03:13:49;32.38;;;19.23;;
60975;SDS011;46849;48.154;17.042;2022-10-14T03:16:34;34.10;;;18.75;;
60975;SDS011;46849;48.154;17.042;2022-10-14T03:19:18;31.42;;;18.00;;
60975;SDS011;46849;48.154;17.042;2022-10-14T03:22:06;34.83;;;19.05;;
60975;SDS011;46849;48.154;17.042;2022-10-14T03:24:53;33.22;;;18.80;;
60975;SDS011;46849;48.154;17.042;2022-10-14T03:27:46;29.75;;;17.15;;
60975;SDS011;46849;48.154;17.042;2022-10-14T03:30:32;29.10;;;18.17;;
60975;SDS011;46849;48.154;17.042;2022-10-14T03:33:23;34.88;;;19.75;;
60975;SDS011;46849;48.154;17.042;2022-10-14T03:36:12;34.53;;;19.25;;
60975;SDS011;46849;48.154;17.042;2022-10-14T03:39:03;36.97;;;20.08;;
60975;SDS011;46849;48.154;17.042;2022-10-14T03:41:56;35.67;;;18.60;;
60975;SDS011;46849;48.154;17.042;2022-10-14T03:44:49;33.08;;;18.85;;
60975;SDS011;46849;48.154;17.042;2022-10-14T03:47:44;32.67;;;18.88;;
60975;SDS011;46849;48.154;17.042;2022-10-14T03:50:29;33.70;;;18.40;;
60975;SDS011;46849;48.154;17.042;2022-10-14T03:53:15;36.10;;;19.08;;
60975;SDS011;46849;48.154;17.042;2022-10-14T03:56:01;33.28;;;19.33;;
60975;SDS011;46849;48.154;17.042;2022-10-14T03:58:47;32.72;;;19.48;;
60975;SDS011;46849;48.154;17.042;2022-10-14T04:01:32;33.92;;;19.15;;
60975;SDS011;46849;48.154;17.042;2022-10-14T04:04:46;32.33;;;18.50;;
60975;SDS011;46849;48.154;17.042;2022-10-14T04:07:33;37.95;;;19.70;;
60975;SDS011;46849;48.154;17.042;2022-10-14T04:10:18;37.85;;;19.17;;
60975;SDS011;46849;48.154;17.042;2022-10-14T04:13:08;33.75;;;18.35;;
60975;SDS011;46849;48.154;17.042;2022-10-14T04:15:55;35.08;;;18.50;;
60975;SDS011;46849;48.154;17.042;2022-10-14T04:18:45;32.75;;;18.88;;
60975;SDS011;46849;48.154;17.042;2022-10-14T04:21:33;35.75;;;19.38;;
60975;SDS011;46849;48.154;17.042;2022-10-14T04:24:18;32.90;;;18.90;;
60975;SDS011;46849;48.154;17.042;2022-10-14T04:27:16;30.88;;;17.77;;
60975;SDS011;46849;48.154;17.042;2022-10-14T04:30:27;41.30;;;21.05;;
60975;SDS011;46849;48.154;17.042;2022-10-14T04:33:12;34.45;;;17.75;;
60975;SDS011;46849;48.154;17.042;2022-10-14T04:35:58;32.42;;;18.30;;
60975;SDS011;46849;48.154;17.042;2022-10-14T04:38:52;34.75;;;19.15;;
60975;SDS011;46849;48.154;17.042;2022-10-14T04:41:37;30.85;;;19.30;;
60975;SDS011;46849;48.154;17.042;2022-10-14T04:44:21;33.00;;;20.08;;
60975;SDS011;46849;48.154;17.042;2022-10-14T04:47:10;36.40;;;19.75;;
60975;SDS011;46849;48.154;17.042;2022-10-14T04:49:55;34.40;;;19.58;;
60975;SDS011;46849;48.154;17.042;2022-10-14T04:52:40;38.22;;;20.52;;
60975;SDS011;46849;48.154;17.042;2022-10-14T04:55:29;32.10;;;19.45;;
60975;SDS011;46849;48.154;17.042;2022-10-14T04:58:15;30.27;;;18.10;;
60975;SDS011;46849;48.154;17.042;2022-10-14T05:01:02;34.53;;;20.40;;
60975;SDS011;46849;48.154;17.042;2022-10-14T05:03:52;30.02;;;17.40;;
60975;SDS011;46849;48.154;17.042;2022-10-14T05:06:37;32.63;;;19.35;;
60975;SDS011;46849;48.154;17.042;2022-10-14T05:09:24;39.33;;;20.33;;
60975;SDS011;46849;48.154;17.042;2022-10-14T05:12:10;30.77;;;18.92;;
60975;SDS011;46849;48.154;17.042;2022-10-14T05:15:02;31.65;;;16.63;;
60975;SDS011;46849;48.154;17.042;2022-10-14T05:17:55;33.75;;;18.65;;
60975;SDS011;46849;48.154;17.042;2022-10-14T05:20:46;32.27;;;17.17;;
60975;SDS011;46849;48.154;17.042;2022-10-14T05:23:31;29.00;;;16.73;;
60975;SDS011;46849;48.154;17.042;2022-10-14T05:26:17;31.95;;;19.27;;
60975;SDS011;46849;48.154;17.042;2022-10-14T05:29:02;25.63;;;13.95;;
60975;SDS011;46849;48.154;17.042;2022-10-14T05:31:48;31.70;;;18.88;;
60975;SDS011;46849;48.154;17.042;2022-10-14T05:34:53;31.98;;;18.95;;
60975;SDS011;46849;48.154;17.042;2022-10-14T05:37:52;30.05;;;16.45;;
60975;SDS011;46849;48.154;17.042;2022-10-14T05:40:39;25.30;;;13.65;;
60975;SDS011;46849;48.154;17.042;2022-10-14T05:43:25;27.88;;;16.77;;
60975;SDS011;46849;48.154;17.042;2022-10-14T05:46:10;30.35;;;15.52;;
60975;SDS011;46849;48.154;17.042;2022-10-14T05:48:58;20.00;;;11.35;;
60975;SDS011;46849;48.154;17.042;2022-10-14T05:51:45;25.67;;;15.27;;
60975;SDS011;46849;48.154;17.042;2022-10-14T05:54:37;30.77;;;16.65;;
60975;SDS011;46849;48.154;17.042;2022-10-14T05:57:23;24.13;;;13.38;;
60975;SDS011;46849;48.154;17.042;2022-10-14T06:00:08;28.27;;;17.38;;
60975;SDS011;46849;48.154;17.042;2022-10-14T06:03:01;18.90;;;11.75;;
60975;SDS011;46849;48.154;17.042;2022-10-14T06:05:47;21.67;;;13.20;;
60975;SDS011;46849;48.154;17.042;2022-10-14T06:08:32;27.13;;;16.02;;
60975;SDS011;46849;48.154;17.042;2022-10-14T06:11:16;23.08;;;13.13;;
60975;SDS011;46849;48.154;17.042;2022-10-14T06:14:01;23.45;;;12.77;;
60975;SDS011;46849;48.154;17.042;2022-10-14T06:16:50;27.02;;;15.45;;
60975;SDS011;46849;48.154;17.042;2022-10-14T06:19:34;31.70;;;16.35;;
60975;SDS011;46849;48.154;17.042;2022-10-14T06:22:19;20.38;;;12.40;;
60975;SDS011;46849;48.154;17.042;2022-10-14T06:25:04;21.48;;;12.48;;
60975;SDS011;46849;48.154;17.042;2022-10-14T06:27:49;23.98;;;13.18;;
60975;SDS011;46849;48.154;17.042;2022-10-14T06:30:34;30.90;;;18.50;;
60975;SDS011;46849;48.154;17.042;2022-10-14T06:33:19;24.92;;;14.90;;
60975;SDS011;46849;48.154;17.042;2022-10-14T06:36:04;23.98;;;14.23;;
60975;SDS011;46849;48.154;17.042;2022-10-14T06:38:50;33.58;;;18.40;;
60975;SDS011;46849;48.154;17.042;2022-10-14T06:41:35;28.13;;;15.07;;
60975;SDS011;46849;48.154;17.042;2022-10-14T06:44:19;21.88;;;12.90;;
60975;SDS011;46849;48.154;17.042;2022-10-14T06:47:05;27.08;;;14.50;;
60975;SDS011;46849;48.154;17.042;2022-10-14T06:49:50;23.73;;;13.73;;
60975;SDS011;46849;48.154;17.042;2022-10-14T06:52:35;23.70;;;14.63;;
60975;SDS011;46849;48.154;17.042;2022-10-14T06:55:19;33.80;;;18.08;;
60975;SDS011;46849;48.154;17.042;2022-10-14T06:58:04;43.10;;;20.15;;
60975;SDS011;46849;48.154;17.042;2022-10-14T07:00:49;38.13;;;20.77;;
60975;SDS011;46849;48.154;17.042;2022-10-14T07:03:34;38.60;;;20.27;;
60975;SDS011;46849;48.154;17.042;2022-10-14T07:06:20;36.67;;;19.60;;
60975;SDS011;46849;48.154;17.042;2022-10-14T07:09:05;44.38;;;23.48;;
60975;SDS011;46849;48.154;17.042;2022-10-14T07:11:50;41.10;;;22.15;;
60975;SDS011;46849;48.154;17.042;2022-10-14T07:14:34;41.65;;;22.35;;
60975;SDS011;46849;48.154;17.042;2022-10-14T07:17:19;39.72;;;21.48;;
60975;SDS011;46849;48.154;17.042;2022-10-14T07:20:04;41.80;;;20.42;;
60975;SDS011;46849;48.154;17.042;2022-10-14T07:22:49;41.33;;;21.90;;
60975;SDS011;46849;48.154;17.042;2022-10-14T07:25:38;43.55;;;22.38;;
60975;SDS011;46849;48.154;17.042;2022-10-14T07:28:23;40.47;;;22.73;;
60975;SDS011;46849;48.154;17.042;2022-10-14T07:31:08;47.50;;;24.55;;
60975;SDS011;46849;48.154;17.042;2022-10-14T07:33:54;38.95;;;21.38;;
60975;SDS011;46849;48.154;17.042;2022-10-14T07:36:38;45.90;;;21.58;;
60975;SDS011;46849;48.154;17.042;2022-10-14T07:39:23;43.53;;;22.38;;
60975;SDS011;46849;48.154;17.042;2022-10-14T07:42:09;40.92;;;21.88;;
60975;SDS011;46849;48.154;17.042;2022-10-14T07:44:54;41.53;;;21.35;;
60975;SDS011;46849;48.154;17.042;2022-10-14T07:47:43;37.28;;;20.85;;
60975;SDS011;46849;48.154;17.042;2022-10-14T07:50:31;39.03;;;20.00;;
60975;SDS011;46849;48.154;17.042;2022-10-14T07:53:16;36.15;;;20.42;;
60975;SDS011;46849;48.154;17.042;2022-10-14T07:56:02;40.55;;;20.60;;
60975;SDS011;46849;48.154;17.042;2022-10-14T07:58:47;33.45;;;19.27;;
60975;SDS011;46849;48.154;17.042;2022-10-14T08:01:32;34.08;;;18.27;;
60975;SDS011;46849;48.154;17.042;2022-10-14T08:04:17;39.38;;;18.67;;
60975;SDS011;46849;48.154;17.042;2022-10-14T08:07:04;36.78;;;19.23;;
60975;SDS011;46849;48.154;17.042;2022-10-14T08:09:48;40.15;;;19.20;;
60975;SDS011;46849;48.154;17.042;2022-10-14T08:12:33;45.95;;;23.50;;
60975;SDS011;46849;48.154;17.042;2022-10-14T08:15:18;38.40;;;20.35;;
60975;SDS011;46849;48.154;17.042;2022-10-14T08:18:04;39.22;;;20.33;;
60975;SDS011;46849;48.154;17.042;2022-10-14T08:20:49;41.42;;;21.67;;
60975;SDS011;46849;48.154;17.042;2022-10-14T08:23:34;38.70;;;21.15;;
60975;SDS011;46849;48.154;17.042;2022-10-14T08:26:19;39.22;;;20.70;;
60975;SDS011;46849;48.154;17.042;2022-10-14T08:29:05;35.40;;;19.38;;
60975;SDS011;46849;48.154;17.042;2022-10-14T08:31:53;37.42;;;20.55;;
60975;SDS011;46849;48.154;17.042;2022-10-14T08:34:38;34.42;;;20.35;;
60975;SDS011;46849;48.154;17.042;2022-10-14T08:37:23;35.10;;;17.85;;
60975;SDS011;46849;48.154;17.042;2022-10-14T08:40:09;35.90;;;17.67;;
60975;SDS011;46849;48.154;17.042;2022-10-14T08:43:13;37.10;;;18.30;;
60975;SDS011;46849;48.154;17.042;2022-10-14T08:46:18;33.03;;;16.77;;
60975;SDS011;46849;48.154;17.042;2022-10-14T08:52:07;30.10;;;16.17;;
60975;SDS011;46849;48.154;17.042;2022-10-14T08:55:00;25.73;;;13.77;;
60975;SDS011;46849;48.154;17.042;2022-10-14T09:00:41;24.30;;;12.85;;
60975;SDS011;46849;48.154;17.042;2022-10-14T09:03:33;25.52;;;14.10;;
60975;SDS011;46849;48.154;17.042;2022-10-14T09:06:21;33.45;;;16.40;;
60975;SDS011;46849;48.154;17.042;2022-10-14T09:12:19;20.63;;;10.35;;
60975;SDS011;46849;48.154;17.042;2022-10-14T09:15:21;24.45;;;12.60;;
60975;SDS011;46849;48.154;17.042;2022-10-14T09:18:20;23.15;;;12.43;;
60975;SDS011;46849;48.154;17.042;2022-10-14T09:26:59;23.17;;;11.10;;
60975;SDS011;46849;48.154;17.042;2022-10-14T09:29:48;26.70;;;11.68;;
60975;SDS011;46849;48.154;17.042;2022-10-14T09:32:39;25.02;;;13.82;;
60975;SDS011;46849;48.154;17.042;2022-10-14T09:35:39;33.67;;;16.55;;
60975;SDS011;46849;48.154;17.042;2022-10-14T09:38:25;34.08;;;15.93;;
60975;SDS011;46849;48.154;17.042;2022-10-14T09:41:11;28.13;;;12.95;;
60975;SDS011;46849;48.154;17.042;2022-10-14T09:44:13;28.60;;;13.77;;
60975;SDS011;46849;48.154;17.042;2022-10-14T09:47:06;22.75;;;10.40;;
60975;SDS011;46849;48.154;17.042;2022-10-14T09:49:56;25.20;;;12.65;;
60975;SDS011;46849;48.154;17.042;2022-10-14T09:52:43;26.90;;;12.85;;
60975;SDS011;46849;48.154;17.042;2022-10-14T09:55:35;25.20;;;12.70;;
60975;SDS011;46849;48.154;17.042;2022-10-14T10:01:36;25.00;;;11.23;;
60975;SDS011;46849;48.154;17.042;2022-10-14T10:07:30;21.00;;;10.63;;
60975;SDS011;46849;48.154;17.042;2022-10-14T10:10:18;24.20;;;12.27;;
60975;SDS011;46849;48.154;17.042;2022-10-14T10:13:21;30.50;;;14.88;;
60975;SDS011;46849;48.154;17.042;2022-10-14T10:16:21;23.45;;;11.50;;
60975;SDS011;46849;48.154;17.042;2022-10-14T10:19:32;23.42;;;10.98;;
60975;SDS011;46849;48.154;17.042;2022-10-14T10:27:47;17.80;;;9.35;;
60975;SDS011;46849;48.154;17.042;2022-10-14T10:30:43;16.98;;;8.55;;
60975;SDS011;46849;48.154;17.042;2022-10-14T10:33:51;17.90;;;10.30;;
60975;SDS011;46849;48.154;17.042;2022-10-14T10:36:44;20.88;;;11.85;;
60975;SDS011;46849;48.154;17.042;2022-10-14T10:43:16;16.38;;;8.48;;
60975;SDS011;46849;48.154;17.042;2022-10-14T10:52:17;19.25;;;9.57;;
60975;SDS011;46849;48.154;17.042;2022-10-14T10:58:07;20.33;;;10.38;;
60975;SDS011;46849;48.154;17.042;2022-10-14T11:01:08;24.33;;;11.85;;
60975;SDS011;46849;48.154;17.042;2022-10-14T11:11:25;16.52;;;8.57;;
60975;SDS011;46849;48.154;17.042;2022-10-14T11:17:43;20.50;;;9.45;;
60975;SDS011;46849;48.154;17.042;2022-10-14T11:24:00;15.95;;;7.93;;
60975;SDS011;46849;48.154;17.042;2022-10-14T11:26:57;11.85;;;6.95;;
60975;SDS011;46849;48.154;17.042;2022-10-14T11:30:07;15.73;;;7.82;;
60975;SDS011;46849;48.154;17.042;2022-10-14T11:57:34;14.82;;;7.05;;
60975;SDS011;46849;48.154;17.042;2022-10-14T12:00:25;13.45;;;6.75;;
60975;SDS011;46849;48.154;17.042;2022-10-14T12:03:20;12.40;;;7.35;;
60975;SDS011;46849;48.154;17.042;2022-10-14T12:06:17;12.88;;;7.13;;
60975;SDS011;46849;48.154;17.042;2022-10-14T12:09:10;14.32;;;6.95;;
60975;SDS011;46849;48.154;17.042;2022-10-14T12:12:05;9.32;;;5.70;;
60975;SDS011;46849;48.154;17.042;2022-10-14T12:17:58;13.52;;;7.35;;
60975;SDS011;46849;48.154;17.042;2022-10-14T12:20:52;11.52;;;7.07;;
60975;SDS011;46849;48.154;17.042;2022-10-14T12:23:47;12.38;;;6.63;;
60975;SDS011;46849;48.154;17.042;2022-10-14T12:29:36;10.80;;;5.20;;
60975;SDS011;46849;48.154;17.042;2022-10-14T12:32:26;12.85;;;6.95;;
60975;SDS011;46849;48.154;17.042;2022-10-14T12:38:43;17.58;;;9.55;;
60975;SDS011;46849;48.154;17.042;2022-10-14T12:42:03;17.65;;;8.70;;
60975;SDS011;46849;48.154;17.042;2022-10-14T12:44:55;9.85;;;5.43;;
60975;SDS011;46849;48.154;17.042;2022-10-14T12:47:41;13.02;;;6.97;;
60975;SDS011;46849;48.154;17.042;2022-10-14T12:50:33;14.93;;;8.25;;
60975;SDS011;46849;48.154;17.042;2022-10-14T12:56:08;11.55;;;7.40;;
60975;SDS011;46849;48.154;17.042;2022-10-14T12:58:55;11.68;;;6.50;;
60975;SDS011;46849;48.154;17.042;2022-10-14T13:01:44;14.48;;;8.15;;
60975;SDS011;46849;48.154;17.042;2022-10-14T13:04:29;14.77;;;6.97;;
60975;SDS011;46849;48.154;17.042;2022-10-14T13:19:16;11.20;;;5.45;;
60975;SDS011;46849;48.154;17.042;2022-10-14T13:25:16;10.60;;;4.93;;
60975;SDS011;46849;48.154;17.042;2022-10-14T13:28:25;9.95;;;4.35;;
60975;SDS011;46849;48.154;17.042;2022-10-14T13:31:13;7.90;;;4.72;;
60975;SDS011;46849;48.154;17.042;2022-10-14T13:34:12;7.82;;;4.22;;
60975;SDS011;46849;48.154;17.042;2022-10-14T13:43:07;7.93;;;3.45;;
60975;SDS011;46849;48.154;17.042;2022-10-14T13:46:10;6.57;;;3.10;;
60975;SDS011;46849;48.154;17.042;2022-10-14T13:49:01;6.75;;;3.78;;
60975;SDS011;46849;48.154;17.042;2022-10-14T13:51:55;6.03;;;3.08;;
60975;SDS011;46849;48.154;17.042;2022-10-14T13:54:43;7.50;;;3.65;;
60975;SDS011;46849;48.154;17.042;2022-10-14T13:57:28;6.68;;;3.47;;
60975;SDS011;46849;48.154;17.042;2022-10-14T14:03:16;7.38;;;3.05;;
60975;SDS011;46849;48.154;17.042;2022-10-14T14:06:10;4.95;;;2.67;;
60975;SDS011;46849;48.154;17.042;2022-10-14T14:11:48;10.87;;;3.27;;
60975;SDS011;46849;48.154;17.042;2022-10-14T14:14:40;6.07;;;2.53;;
60975;SDS011;46849;48.154;17.042;2022-10-14T14:17:27;3.03;;;2.30;;
60975;SDS011;46849;48.154;17.042;2022-10-14T14:20:17;5.72;;;2.97;;
60975;SDS011;46849;48.154;17.042;2022-10-14T14:23:09;5.50;;;2.33;;
60975;SDS011;46849;48.154;17.042;2022-10-14T14:25:55;5.05;;;2.95;;
60975;SDS011;46849;48.154;17.042;2022-10-14T14:28:41;5.30;;;2.55;;
60975;SDS011;46849;48.154;17.042;2022-10-14T14:31:29;6.32;;;2.78;;
60975;SDS011;46849;48.154;17.042;2022-10-14T14:34:18;4.22;;;2.80;;
60975;SDS011;46849;48.154;17.042;2022-10-14T14:37:04;5.20;;;2.63;;
60975;SDS011;46849;48.154;17.042;2022-10-14T14:39:58;9.57;;;5.25;;
60975;SDS011;46849;48.154;17.042;2022-10-14T14:42:44;6.63;;;2.58;;
60975;SDS011;46849;48.154;17.042;2022-10-14T14:45:41;5.85;;;2.70;;
60975;SDS011;46849;48.154;17.042;2022-10-14T14:48:29;5.35;;;2.92;;
60975;SDS011;46849;48.154;17.042;2022-10-14T14:51:16;4.75;;;2.70;;
60975;SDS011;46849;48.154;17.042;2022-10-14T14:54:03;5.78;;;3.15;;
60975;SDS011;46849;48.154;17.042;2022-10-14T14:59:43;4.97;;;2.60;;
60975;SDS011;46849;48.154;17.042;2022-10-14T15:02:40;7.28;;;3.05;;
60975;SDS011;46849;48.154;17.042;2022-10-14T15:05:24;6.95;;;2.65;;
60975;SDS011;46849;48.154;17.042;2022-10-14T15:08:13;4.72;;;2.95;;
60975;SDS011;46849;48.154;17.042;2022-10-14T15:11:05;6.28;;;3.28;;
60975;SDS011;46849;48.154;17.042;2022-10-14T15:13:51;5.88;;;3.25;;
60975;SDS011;46849;48.154;17.042;2022-10-14T15:16:37;10.98;;;5.28;;
60975;SDS011;46849;48.154;17.042;2022-10-14T15:19:28;4.65;;;2.70;;
60975;SDS011;46849;48.154;17.042;2022-10-14T15:28:30;7.22;;;4.28;;
60975;SDS011;46849;48.154;17.042;2022-10-14T15:31:17;11.57;;;5.60;;
60975;SDS011;46849;48.154;17.042;2022-10-14T15:34:02;7.75;;;4.97;;
60975;SDS011;46849;48.154;17.042;2022-10-14T15:36:49;7.72;;;4.28;;
60975;SDS011;46849;48.154;17.042;2022-10-14T15:39:36;11.45;;;5.47;;
60975;SDS011;46849;48.154;17.042;2022-10-14T15:42:22;8.23;;;5.05;;
60975;SDS011;46849;48.154;17.042;2022-10-14T15:45:06;9.07;;;5.25;;
60975;SDS011;46849;48.154;17.042;2022-10-14T15:47:54;9.73;;;5.30;;
60975;SDS011;46849;48.154;17.042;2022-10-14T15:50:45;11.40;;;6.93;;
60975;SDS011;46849;48.154;17.042;2022-10-14T15:53:32;12.45;;;7.22;;
60975;SDS011;46849;48.154;17.042;2022-10-14T15:56:16;15.07;;;9.43;;
60975;SDS011;46849;48.154;17.042;2022-10-14T15:59:03;15.10;;;8.15;;
60975;SDS011;46849;48.154;17.042;2022-10-14T16:01:48;13.45;;;8.07;;
60975;SDS011;46849;48.154;17.042;2022-10-14T16:04:33;20.17;;;10.77;;
60975;SDS011;46849;48.154;17.042;2022-10-14T16:07:19;18.98;;;10.50;;
60975;SDS011;46849;48.154;17.042;2022-10-14T16:10:06;18.30;;;9.77;;
60975;SDS011;46849;48.154;17.042;2022-10-14T16:12:52;19.45;;;9.75;;
60975;SDS011;46849;48.154;17.042;2022-10-14T16:15:56;20.30;;;11.02;;
60975;SDS011;46849;48.154;17.042;2022-10-14T16:18:46;23.92;;;12.50;;
60975;SDS011;46849;48.154;17.042;2022-10-14T16:21:31;27.48;;;13.85;;
60975;SDS011;46849;48.154;17.042;2022-10-14T16:24:19;22.95;;;13.75;;
60975;SDS011;46849;48.154;17.042;2022-10-14T16:27:05;18.45;;;10.95;;
60975;SDS011;46849;48.154;17.042;2022-10-14T16:29:49;26.70;;;14.90;;
60975;SDS011;46849;48.154;17.042;2022-10-14T16:32:34;26.27;;;14.35;;
60975;SDS011;46849;48.154;17.042;2022-10-14T16:35:18;28.13;;;14.60;;
60975;SDS011;46849;48.154;17.042;2022-10-14T16:38:03;26.35;;;14.82;;
60975;SDS011;46849;48.154;17.042;2022-10-14T16:40:55;29.05;;;15.13;;
60975;SDS011;46849;48.154;17.042;2022-10-14T16:43:42;33.55;;;16.50;;
60975;SDS011;46849;48.154;17.042;2022-10-14T16:46:26;34.08;;;14.43;;
60975;SDS011;46849;48.154;17.042;2022-10-14T16:49:30;21.48;;;13.20;;
60975;SDS011;46849;48.154;17.042;2022-10-14T16:52:14;31.85;;;14.75;;
60975;SDS011;46849;48.154;17.042;2022-10-14T16:55:00;25.92;;;14.13;;
60975;SDS011;46849;48.154;17.042;2022-10-14T16:57:45;25.52;;;14.80;;
60975;SDS011;46849;48.154;17.042;2022-10-14T17:00:29;28.08;;;15.77;;
60975;SDS011;46849;48.154;17.042;2022-10-14T17:03:14;26.27;;;14.75;;
60975;SDS011;46849;48.154;17.042;2022-10-14T17:06:01;35.75;;;19.33;;
60975;SDS011;46849;48.154;17.042;2022-10-14T17:08:46;30.27;;;15.55;;
60975;SDS011;46849;48.154;17.042;2022-10-14T17:11:32;27.65;;;15.82;;
60975;SDS011;46849;48.154;17.042;2022-10-14T17:14:19;27.52;;;14.85;;
60975;SDS011;46849;48.154;17.042;2022-10-14T17:17:06;24.75;;;14.32;;
60975;SDS011;46849;48.154;17.042;2022-10-14T17:19:51;34.58;;;17.40;;
60975;SDS011;46849;48.154;17.042;2022-10-14T17:22:41;33.67;;;18.30;;
60975;SDS011;46849;48.154;17.042;2022-10-14T17:25:26;30.42;;;15.75;;
60975;SDS011;46849;48.154;17.042;2022-10-14T17:28:11;27.98;;;15.82;;
60975;SDS011;46849;48.154;17.042;2022-10-14T17:30:56;30.40;;;15.93;;
60975;SDS011;46849;48.154;17.042;2022-10-14T17:33:42;28.70;;;16.48;;
60975;SDS011;46849;48.154;17.042;2022-10-14T17:36:27;31.70;;;16.70;;
60975;SDS011;46849;48.154;17.042;2022-10-14T17:39:14;28.63;;;16.50;;
60975;SDS011;46849;48.154;17.042;2022-10-14T17:42:01;25.83;;;15.80;;
60975;SDS011;46849;48.154;17.042;2022-10-14T17:44:47;35.80;;;16.63;;
60975;SDS011;46849;48.154;17.042;2022-10-14T17:47:32;28.88;;;15.82;;
60975;SDS011;46849;48.154;17.042;2022-10-14T17:50:17;30.98;;;16.80;;
60975;SDS011;46849;48.154;17.042;2022-10-14T17:53:02;26.40;;;15.50;;
60975;SDS011;46849;48.154;17.042;2022-10-14T17:55:47;33.72;;;18.10;;
60975;SDS011;46849;48.154;17.042;2022-10-14T17:58:32;29.63;;;16.52;;
60975;SDS011;46849;48.154;17.042;2022-10-14T18:01:17;36.03;;;17.15;;
60975;SDS011;46849;48.154;17.042;2022-10-14T18:04:02;28.92;;;16.42;;
60975;SDS011;46849;48.154;17.042;2022-10-14T18:06:47;25.40;;;14.23;;
60975;SDS011;46849;48.154;17.042;2022-10-14T18:09:31;29.50;;;17.52;;
60975;SDS011;46849;48.154;17.042;2022-10-14T18:12:17;27.42;;;15.85;;
60975;SDS011;46849;48.154;17.042;2022-10-14T18:15:02;32.65;;;17.85;;
60975;SDS011;46849;48.154;17.042;2022-10-14T18:17:47;31.02;;;16.67;;
60975;SDS011;46849;48.154;17.042;2022-10-14T18:20:34;30.85;;;17.30;;
60975;SDS011;46849;48.154;17.042;2022-10-14T18:23:20;34.30;;;17.83;;
60975;SDS011;46849;48.154;17.042;2022-10-14T18:26:06;33.75;;;16.98;;
60975;SDS011;46849;48.154;17.042;2022-10-14T18:28:51;34.25;;;17.33;;
60975;SDS011;46849;48.154;17.042;2022-10-14T18:31:37;25.08;;;13.98;;
60975;SDS011;46849;48.154;17.042;2022-10-14T18:34:22;25.83;;;15.25;;
60975;SDS011;46849;48.154;17.042;2022-10-14T18:37:08;27.80;;;15.85;;
60975;SDS011;46849;48.154;17.042;2022-10-14T18:39:53;28.45;;;15.18;;
60975;SDS011;46849;48.154;17.042;2022-10-14T18:42:37;30.83;;;16.63;;
60975;SDS011;46849;48.154;17.042;2022-10-14T18:45:22;27.80;;;15.60;;